sensor_id;sensor_type;location;lat;lon;timestamp;P1;durP1;ratioP1;P2;durP2;ratioP2
66380;SDS011;53177;52.648;1.214;2022-10-31T00:01:12;14.32;;;3.65;;
66380;SDS011;53177;52.648;1.214;2022-10-31T00:03:39;14.43;;;3.13;;
66380;SDS011;53177;52.648;1.214;2022-10-31T00:06:04;14.33;;;3.17;;
66380;SDS011;53177;52.648;1.214;2022-10-31T00:08:29;14.23;;;3.40;;
66380;SDS011;53177;52.648;1.214;2022-10-31T00:10:55;12.60;;;3.00;;
66380;SDS011;53177;52.648;1.214;2022-10-31T00:13:20;14.25;;;3.47;;
66380;SDS011;53177;52.648;1.214;2022-10-31T00:15:46;12.50;;;3.20;;
66380;SDS011;53177;52.648;1.214;2022-10-31T00:18:11;17.00;;;3.57;;
66380;SDS011;53177;52.648;1.214;2022-10-31T00:20:37;11.70;;;3.17;;
66380;SDS011;53177;52.648;1.214;2022-10-31T00:23:03;12.57;;;3.53;;
66380;SDS011;53177;52.648;1.214;2022-10-31T00:25:32;15.20;;;3.25;;
66380;SDS011;53177;52.648;1.214;2022-10-31T00:27:59;13.57;;;3.83;;
66380;SDS011;53177;52.648;1.214;2022-10-31T00:30:25;13.98;;;3.08;;
66380;SDS011;53177;52.648;1.214;2022-10-31T00:32:51;11.60;;;2.63;;
66380;SDS011;53177;52.648;1.214;2022-10-31T00:35:16;11.98;;;3.03;;
66380;SDS011;53177;52.648;1.214;2022-10-31T00:37:42;13.15;;;3.00;;
66380;SDS011;53177;52.648;1.214;2022-10-31T00:40:07;18.37;;;3.50;;
66380;SDS011;53177;52.648;1.214;2022-10-31T00:42:33;10.20;;;3.00;;
66380;SDS011;53177;52.648;1.214;2022-10-31T00:44:59;14.57;;;3.00;;
66380;SDS011;53177;52.648;1.214;2022-10-31T00:47:24;11.93;;;2.97;;
66380;SDS011;53177;52.648;1.214;2022-10-31T00:49:49;9.60;;;2.90;;
66380;SDS011;53177;52.648;1.214;2022-10-31T00:52:15;13.20;;;3.00;;
66380;SDS011;53177;52.648;1.214;2022-10-31T00:54:40;15.27;;;3.28;;
66380;SDS011;53177;52.648;1.214;2022-10-31T00:57:06;14.47;;;3.40;;
66380;SDS011;53177;52.648;1.214;2022-10-31T00:59:31;14.30;;;3.27;;
66380;SDS011;53177;52.648;1.214;2022-10-31T01:01:56;13.97;;;3.17;;
66380;SDS011;53177;52.648;1.214;2022-10-31T01:04:22;13.53;;;3.30;;
66380;SDS011;53177;52.648;1.214;2022-10-31T01:06:47;15.73;;;3.17;;
66380;SDS011;53177;52.648;1.214;2022-10-31T01:09:13;14.17;;;2.93;;
66380;SDS011;53177;52.648;1.214;2022-10-31T01:11:38;14.37;;;3.23;;
66380;SDS011;53177;52.648;1.214;2022-10-31T01:14:03;17.77;;;3.20;;
66380;SDS011;53177;52.648;1.214;2022-10-31T01:16:29;13.53;;;3.20;;
66380;SDS011;53177;52.648;1.214;2022-10-31T01:18:54;15.63;;;2.88;;
66380;SDS011;53177;52.648;1.214;2022-10-31T01:21:21;12.23;;;2.90;;
66380;SDS011;53177;52.648;1.214;2022-10-31T01:23:48;15.55;;;2.90;;
66380;SDS011;53177;52.648;1.214;2022-10-31T01:26:15;12.77;;;3.15;;
66380;SDS011;53177;52.648;1.214;2022-10-31T01:28:47;16.50;;;3.58;;
66380;SDS011;53177;52.648;1.214;2022-10-31T01:31:15;16.70;;;3.28;;
66380;SDS011;53177;52.648;1.214;2022-10-31T01:33:41;15.60;;;3.17;;
66380;SDS011;53177;52.648;1.214;2022-10-31T01:36:10;10.95;;;2.92;;
66380;SDS011;53177;52.648;1.214;2022-10-31T01:38:39;13.98;;;3.03;;
66380;SDS011;53177;52.648;1.214;2022-10-31T01:41:04;11.20;;;2.73;;
66380;SDS011;53177;52.648;1.214;2022-10-31T01:43:43;9.67;;;3.13;;
66380;SDS011;53177;52.648;1.214;2022-10-31T01:46:41;16.48;;;2.60;;
66380;SDS011;53177;52.648;1.214;2022-10-31T01:49:27;16.02;;;2.85;;
66380;SDS011;53177;52.648;1.214;2022-10-31T01:52:02;11.80;;;2.60;;
66380;SDS011;53177;52.648;1.214;2022-10-31T01:54:37;13.93;;;2.53;;
66380;SDS011;53177;52.648;1.214;2022-10-31T01:57:08;10.38;;;2.85;;
66380;SDS011;53177;52.648;1.214;2022-10-31T01:59:38;14.25;;;2.60;;
66380;SDS011;53177;52.648;1.214;2022-10-31T02:02:08;19.80;;;3.00;;
66380;SDS011;53177;52.648;1.214;2022-10-31T02:04:33;11.15;;;2.75;;
66380;SDS011;53177;52.648;1.214;2022-10-31T02:07:03;14.60;;;2.67;;
66380;SDS011;53177;52.648;1.214;2022-10-31T02:09:35;13.48;;;2.58;;
66380;SDS011;53177;52.648;1.214;2022-10-31T02:12:02;14.20;;;2.83;;
66380;SDS011;53177;52.648;1.214;2022-10-31T02:14:29;13.75;;;2.70;;
66380;SDS011;53177;52.648;1.214;2022-10-31T02:16:56;15.90;;;2.90;;
66380;SDS011;53177;52.648;1.214;2022-10-31T02:19:38;13.00;;;2.70;;
66380;SDS011;53177;52.648;1.214;2022-10-31T02:27:42;11.13;;;2.40;;
66380;SDS011;53177;52.648;1.214;2022-10-31T02:30:16;13.30;;;2.90;;
66380;SDS011;53177;52.648;1.214;2022-10-31T02:38:19;11.43;;;2.33;;
66380;SDS011;53177;52.648;1.214;2022-10-31T02:43:52;10.60;;;2.45;;
66380;SDS011;53177;52.648;1.214;2022-10-31T02:46:32;11.83;;;2.87;;
66380;SDS011;53177;52.648;1.214;2022-10-31T02:49:03;10.38;;;2.50;;
66380;SDS011;53177;52.648;1.214;2022-10-31T02:51:34;12.20;;;2.40;;
66380;SDS011;53177;52.648;1.214;2022-10-31T02:54:00;7.82;;;2.15;;
66380;SDS011;53177;52.648;1.214;2022-10-31T02:56:26;8.03;;;2.20;;
66380;SDS011;53177;52.648;1.214;2022-10-31T02:58:59;11.77;;;2.70;;
66380;SDS011;53177;52.648;1.214;2022-10-31T03:09:34;10.82;;;3.05;;
66380;SDS011;53177;52.648;1.214;2022-10-31T03:14:56;12.88;;;3.33;;
66380;SDS011;53177;52.648;1.214;2022-10-31T03:17:50;14.27;;;3.35;;
66380;SDS011;53177;52.648;1.214;2022-10-31T03:20:27;15.57;;;3.30;;
66380;SDS011;53177;52.648;1.214;2022-10-31T03:22:58;14.07;;;3.20;;
66380;SDS011;53177;52.648;1.214;2022-10-31T03:25:27;13.70;;;3.45;;
66380;SDS011;53177;52.648;1.214;2022-10-31T03:27:54;11.25;;;3.10;;
66380;SDS011;53177;52.648;1.214;2022-10-31T03:30:21;16.75;;;3.80;;
66380;SDS011;53177;52.648;1.214;2022-10-31T03:32:48;12.88;;;3.55;;
66380;SDS011;53177;52.648;1.214;2022-10-31T03:35:17;17.05;;;3.50;;
66380;SDS011;53177;52.648;1.214;2022-10-31T03:37:45;14.15;;;3.72;;
66380;SDS011;53177;52.648;1.214;2022-10-31T03:40:13;17.35;;;4.55;;
66380;SDS011;53177;52.648;1.214;2022-10-31T03:42:43;11.90;;;3.30;;
66380;SDS011;53177;52.648;1.214;2022-10-31T03:45:17;19.35;;;4.15;;
66380;SDS011;53177;52.648;1.214;2022-10-31T03:47:48;14.23;;;4.10;;
66380;SDS011;53177;52.648;1.214;2022-10-31T03:50:14;14.50;;;3.92;;
66380;SDS011;53177;52.648;1.214;2022-10-31T03:58:00;15.35;;;4.20;;
66380;SDS011;53177;52.648;1.214;2022-10-31T04:00:30;13.60;;;4.05;;
66380;SDS011;53177;52.648;1.214;2022-10-31T04:06:03;15.03;;;3.70;;
66380;SDS011;53177;52.648;1.214;2022-10-31T04:08:32;13.70;;;4.30;;
66380;SDS011;53177;52.648;1.214;2022-10-31T04:11:05;12.88;;;4.13;;
66380;SDS011;53177;52.648;1.214;2022-10-31T04:13:34;13.27;;;4.20;;
66380;SDS011;53177;52.648;1.214;2022-10-31T04:16:02;18.88;;;5.22;;
66380;SDS011;53177;52.648;1.214;2022-10-31T04:18:28;15.37;;;4.40;;
66380;SDS011;53177;52.648;1.214;2022-10-31T04:21:06;14.45;;;5.07;;
66380;SDS011;53177;52.648;1.214;2022-10-31T04:23:33;18.57;;;4.67;;
66380;SDS011;53177;52.648;1.214;2022-10-31T04:26:00;17.92;;;4.95;;
66380;SDS011;53177;52.648;1.214;2022-10-31T04:28:26;15.23;;;5.20;;
66380;SDS011;53177;52.648;1.214;2022-10-31T04:30:51;20.67;;;4.90;;
66380;SDS011;53177;52.648;1.214;2022-10-31T04:33:17;17.83;;;4.73;;
66380;SDS011;53177;52.648;1.214;2022-10-31T04:35:42;13.15;;;4.75;;
66380;SDS011;53177;52.648;1.214;2022-10-31T04:38:08;18.90;;;5.57;;
66380;SDS011;53177;52.648;1.214;2022-10-31T04:40:34;15.88;;;5.05;;
66380;SDS011;53177;52.648;1.214;2022-10-31T04:42:59;17.40;;;5.10;;
66380;SDS011;53177;52.648;1.214;2022-10-31T04:45:24;13.33;;;5.23;;
66380;SDS011;53177;52.648;1.214;2022-10-31T04:47:50;16.90;;;5.30;;
66380;SDS011;53177;52.648;1.214;2022-10-31T04:50:16;17.87;;;5.10;;
66380;SDS011;53177;52.648;1.214;2022-10-31T04:52:42;19.50;;;5.50;;
66380;SDS011;53177;52.648;1.214;2022-10-31T04:55:10;17.27;;;5.35;;
66380;SDS011;53177;52.648;1.214;2022-10-31T05:00:08;15.35;;;5.88;;
66380;SDS011;53177;52.648;1.214;2022-10-31T05:02:42;18.10;;;5.63;;
66380;SDS011;53177;52.648;1.214;2022-10-31T05:05:08;17.77;;;6.32;;
66380;SDS011;53177;52.648;1.214;2022-10-31T05:07:37;21.43;;;6.50;;
66380;SDS011;53177;52.648;1.214;2022-10-31T05:10:04;22.63;;;6.55;;
66380;SDS011;53177;52.648;1.214;2022-10-31T05:12:30;27.60;;;6.60;;
66380;SDS011;53177;52.648;1.214;2022-10-31T05:14:55;22.40;;;7.00;;
66380;SDS011;53177;52.648;1.214;2022-10-31T05:17:21;24.43;;;7.10;;
66380;SDS011;53177;52.648;1.214;2022-10-31T05:19:46;23.93;;;7.10;;
66380;SDS011;53177;52.648;1.214;2022-10-31T05:22:11;21.53;;;7.03;;
66380;SDS011;53177;52.648;1.214;2022-10-31T05:24:37;26.23;;;7.30;;
66380;SDS011;53177;52.648;1.214;2022-10-31T05:27:02;23.33;;;7.30;;
66380;SDS011;53177;52.648;1.214;2022-10-31T05:29:28;24.23;;;7.73;;
66380;SDS011;53177;52.648;1.214;2022-10-31T05:31:53;24.27;;;7.50;;
66380;SDS011;53177;52.648;1.214;2022-10-31T05:34:19;26.63;;;7.60;;
66380;SDS011;53177;52.648;1.214;2022-10-31T05:36:44;25.38;;;6.78;;
66380;SDS011;53177;52.648;1.214;2022-10-31T05:39:09;18.00;;;6.82;;
66380;SDS011;53177;52.648;1.214;2022-10-31T05:41:35;27.33;;;7.73;;
66380;SDS011;53177;52.648;1.214;2022-10-31T05:44:00;18.93;;;6.93;;
66380;SDS011;53177;52.648;1.214;2022-10-31T05:46:25;23.93;;;7.30;;
66380;SDS011;53177;52.648;1.214;2022-10-31T05:48:51;22.13;;;6.88;;
66380;SDS011;53177;52.648;1.214;2022-10-31T05:51:16;22.70;;;7.35;;
66380;SDS011;53177;52.648;1.214;2022-10-31T05:53:42;21.63;;;7.03;;
66380;SDS011;53177;52.648;1.214;2022-10-31T05:56:07;29.90;;;7.87;;
66380;SDS011;53177;52.648;1.214;2022-10-31T05:58:32;23.60;;;7.27;;
66380;SDS011;53177;52.648;1.214;2022-10-31T06:00:58;22.33;;;8.33;;
66380;SDS011;53177;52.648;1.214;2022-10-31T06:03:23;27.13;;;8.00;;
66380;SDS011;53177;52.648;1.214;2022-10-31T06:05:48;27.07;;;7.10;;
66380;SDS011;53177;52.648;1.214;2022-10-31T06:08:14;20.67;;;6.80;;
66380;SDS011;53177;52.648;1.214;2022-10-31T06:10:39;18.57;;;6.97;;
66380;SDS011;53177;52.648;1.214;2022-10-31T06:13:05;21.70;;;7.20;;
66380;SDS011;53177;52.648;1.214;2022-10-31T06:15:31;22.92;;;6.95;;
66380;SDS011;53177;52.648;1.214;2022-10-31T06:17:57;20.90;;;7.13;;
66380;SDS011;53177;52.648;1.214;2022-10-31T06:20:24;29.35;;;8.00;;
66380;SDS011;53177;52.648;1.214;2022-10-31T06:22:50;21.60;;;7.57;;
66380;SDS011;53177;52.648;1.214;2022-10-31T06:25:15;23.83;;;7.00;;
66380;SDS011;53177;52.648;1.214;2022-10-31T06:27:41;23.47;;;7.23;;
66380;SDS011;53177;52.648;1.214;2022-10-31T06:30:06;19.58;;;7.18;;
66380;SDS011;53177;52.648;1.214;2022-10-31T06:32:32;26.10;;;7.45;;
66380;SDS011;53177;52.648;1.214;2022-10-31T06:34:58;24.33;;;7.60;;
66380;SDS011;53177;52.648;1.214;2022-10-31T06:37:23;29.58;;;8.43;;
66380;SDS011;53177;52.648;1.214;2022-10-31T06:39:50;21.93;;;7.73;;
66380;SDS011;53177;52.648;1.214;2022-10-31T06:42:18;27.70;;;7.97;;
66380;SDS011;53177;52.648;1.214;2022-10-31T06:44:46;21.58;;;7.05;;
66380;SDS011;53177;52.648;1.214;2022-10-31T06:47:18;26.03;;;8.10;;
66380;SDS011;53177;52.648;1.214;2022-10-31T06:49:47;25.55;;;8.15;;
66380;SDS011;53177;52.648;1.214;2022-10-31T06:52:15;19.83;;;7.32;;
66380;SDS011;53177;52.648;1.214;2022-10-31T06:54:42;27.50;;;8.10;;
66380;SDS011;53177;52.648;1.214;2022-10-31T06:57:07;29.10;;;8.27;;
66380;SDS011;53177;52.648;1.214;2022-10-31T06:59:33;25.90;;;8.47;;
66380;SDS011;53177;52.648;1.214;2022-10-31T07:01:58;25.60;;;8.37;;
66380;SDS011;53177;52.648;1.214;2022-10-31T07:04:24;21.70;;;7.75;;
66380;SDS011;53177;52.648;1.214;2022-10-31T07:06:52;25.10;;;8.07;;
66380;SDS011;53177;52.648;1.214;2022-10-31T07:09:18;27.60;;;8.20;;
66380;SDS011;53177;52.648;1.214;2022-10-31T07:11:43;30.40;;;8.37;;
66380;SDS011;53177;52.648;1.214;2022-10-31T07:14:09;24.47;;;7.57;;
66380;SDS011;53177;52.648;1.214;2022-10-31T07:16:34;25.97;;;8.00;;
66380;SDS011;53177;52.648;1.214;2022-10-31T07:18:59;30.23;;;8.30;;
66380;SDS011;53177;52.648;1.214;2022-10-31T07:21:25;22.83;;;7.23;;
66380;SDS011;53177;52.648;1.214;2022-10-31T07:23:50;27.90;;;7.80;;
66380;SDS011;53177;52.648;1.214;2022-10-31T07:26:16;25.50;;;8.33;;
66380;SDS011;53177;52.648;1.214;2022-10-31T07:28:43;21.23;;;7.70;;
66380;SDS011;53177;52.648;1.214;2022-10-31T07:31:08;22.90;;;7.83;;
66380;SDS011;53177;52.648;1.214;2022-10-31T07:33:34;27.00;;;8.43;;
66380;SDS011;53177;52.648;1.214;2022-10-31T07:35:59;26.52;;;8.32;;
66380;SDS011;53177;52.648;1.214;2022-10-31T07:38:25;27.83;;;8.57;;
66380;SDS011;53177;52.648;1.214;2022-10-31T07:40:51;28.87;;;8.70;;
66380;SDS011;53177;52.648;1.214;2022-10-31T07:43:20;24.73;;;8.25;;
66380;SDS011;53177;52.648;1.214;2022-10-31T07:45:51;25.97;;;8.20;;
66380;SDS011;53177;52.648;1.214;2022-10-31T07:48:18;26.17;;;8.70;;
66380;SDS011;53177;52.648;1.214;2022-10-31T07:50:44;35.00;;;8.07;;
66380;SDS011;53177;52.648;1.214;2022-10-31T07:53:10;28.63;;;8.50;;
66380;SDS011;53177;52.648;1.214;2022-10-31T07:55:36;30.38;;;8.23;;
66380;SDS011;53177;52.648;1.214;2022-10-31T07:58:07;24.08;;;7.78;;
66380;SDS011;53177;52.648;1.214;2022-10-31T08:00:36;28.63;;;7.63;;
66380;SDS011;53177;52.648;1.214;2022-10-31T08:03:16;28.98;;;7.82;;
66380;SDS011;53177;52.648;1.214;2022-10-31T08:05:43;30.63;;;8.27;;
66380;SDS011;53177;52.648;1.214;2022-10-31T08:08:12;33.63;;;8.57;;
66380;SDS011;53177;52.648;1.214;2022-10-31T08:10:38;29.25;;;8.90;;
66380;SDS011;53177;52.648;1.214;2022-10-31T08:13:06;29.25;;;8.32;;
66380;SDS011;53177;52.648;1.214;2022-10-31T08:15:33;27.20;;;8.45;;
66380;SDS011;53177;52.648;1.214;2022-10-31T08:18:02;25.60;;;8.03;;
66380;SDS011;53177;52.648;1.214;2022-10-31T08:20:28;24.40;;;7.88;;
66380;SDS011;53177;52.648;1.214;2022-10-31T08:22:58;33.58;;;8.93;;
66380;SDS011;53177;52.648;1.214;2022-10-31T08:25:25;27.30;;;8.68;;
66380;SDS011;53177;52.648;1.214;2022-10-31T08:27:52;25.37;;;8.07;;
66380;SDS011;53177;52.648;1.214;2022-10-31T08:30:20;29.83;;;8.48;;
66380;SDS011;53177;52.648;1.214;2022-10-31T08:32:47;33.15;;;9.18;;
66380;SDS011;53177;52.648;1.214;2022-10-31T08:35:21;31.52;;;8.60;;
66380;SDS011;53177;52.648;1.214;2022-10-31T08:37:51;32.93;;;9.10;;
66380;SDS011;53177;52.648;1.214;2022-10-31T08:40:18;28.90;;;9.35;;
66380;SDS011;53177;52.648;1.214;2022-10-31T08:42:44;23.98;;;8.95;;
66380;SDS011;53177;52.648;1.214;2022-10-31T08:45:10;29.07;;;9.43;;
66380;SDS011;53177;52.648;1.214;2022-10-31T08:47:35;25.23;;;8.57;;
66380;SDS011;53177;52.648;1.214;2022-10-31T08:50:00;29.00;;;9.37;;
66380;SDS011;53177;52.648;1.214;2022-10-31T08:52:26;29.53;;;9.43;;
66380;SDS011;53177;52.648;1.214;2022-10-31T08:54:51;28.23;;;9.20;;
66380;SDS011;53177;52.648;1.214;2022-10-31T08:57:17;27.17;;;9.43;;
66380;SDS011;53177;52.648;1.214;2022-10-31T08:59:42;24.10;;;8.40;;
66380;SDS011;53177;52.648;1.214;2022-10-31T09:02:07;30.90;;;8.43;;
66380;SDS011;53177;52.648;1.214;2022-10-31T09:04:33;26.58;;;8.15;;
66380;SDS011;53177;52.648;1.214;2022-10-31T09:06:58;28.90;;;8.03;;
66380;SDS011;53177;52.648;1.214;2022-10-31T09:09:24;24.37;;;8.07;;
66380;SDS011;53177;52.648;1.214;2022-10-31T09:11:49;23.23;;;7.90;;
66380;SDS011;53177;52.648;1.214;2022-10-31T09:14:14;21.87;;;7.43;;
66380;SDS011;53177;52.648;1.214;2022-10-31T09:16:40;18.07;;;6.10;;
66380;SDS011;53177;52.648;1.214;2022-10-31T09:19:05;23.47;;;6.87;;
66380;SDS011;53177;52.648;1.214;2022-10-31T09:21:30;22.77;;;6.07;;
66380;SDS011;53177;52.648;1.214;2022-10-31T09:23:56;17.53;;;5.10;;
66380;SDS011;53177;52.648;1.214;2022-10-31T09:26:21;21.60;;;5.83;;
66380;SDS011;53177;52.648;1.214;2022-10-31T09:28:46;22.27;;;5.70;;
66380;SDS011;53177;52.648;1.214;2022-10-31T09:31:12;21.43;;;5.13;;
66380;SDS011;53177;52.648;1.214;2022-10-31T09:33:37;19.17;;;4.22;;
66380;SDS011;53177;52.648;1.214;2022-10-31T09:36:03;16.07;;;4.23;;
66380;SDS011;53177;52.648;1.214;2022-10-31T09:38:28;13.30;;;3.67;;
66380;SDS011;53177;52.648;1.214;2022-10-31T09:51:51;12.55;;;3.38;;
66380;SDS011;53177;52.648;1.214;2022-10-31T09:54:24;9.60;;;3.10;;
66380;SDS011;53177;52.648;1.214;2022-10-31T09:56:55;14.70;;;3.58;;
66380;SDS011;53177;52.648;1.214;2022-10-31T09:59:30;14.15;;;3.65;;
66380;SDS011;53177;52.648;1.214;2022-10-31T10:02:04;14.80;;;3.30;;
66380;SDS011;53177;52.648;1.214;2022-10-31T10:04:57;14.95;;;3.65;;
66380;SDS011;53177;52.648;1.214;2022-10-31T10:09:55;12.88;;;3.42;;
66380;SDS011;53177;52.648;1.214;2022-10-31T10:15:31;14.50;;;3.13;;
66380;SDS011;53177;52.648;1.214;2022-10-31T10:21:05;14.93;;;3.10;;
66380;SDS011;53177;52.648;1.214;2022-10-31T10:26:21;14.82;;;2.85;;
66380;SDS011;53177;52.648;1.214;2022-10-31T10:29:39;11.82;;;2.30;;
66380;SDS011;53177;52.648;1.214;2022-10-31T10:32:20;10.40;;;2.40;;
66380;SDS011;53177;52.648;1.214;2022-10-31T10:34:50;10.33;;;2.23;;
66380;SDS011;53177;52.648;1.214;2022-10-31T10:39:52;14.93;;;2.65;;
66380;SDS011;53177;52.648;1.214;2022-10-31T10:42:20;12.85;;;2.50;;
66380;SDS011;53177;52.648;1.214;2022-10-31T10:45:14;10.68;;;2.20;;
66380;SDS011;53177;52.648;1.214;2022-10-31T10:50:41;10.82;;;2.42;;
66380;SDS011;53177;52.648;1.214;2022-10-31T10:53:16;9.43;;;2.30;;
66380;SDS011;53177;52.648;1.214;2022-10-31T10:58:45;11.05;;;2.35;;
66380;SDS011;53177;52.648;1.214;2022-10-31T11:01:12;10.70;;;2.07;;
66380;SDS011;53177;52.648;1.214;2022-10-31T11:03:38;8.57;;;1.90;;
66380;SDS011;53177;52.648;1.214;2022-10-31T11:06:15;8.60;;;1.88;;
66380;SDS011;53177;52.648;1.214;2022-10-31T11:08:45;12.85;;;2.65;;
66380;SDS011;53177;52.648;1.214;2022-10-31T11:11:18;9.53;;;2.00;;
66380;SDS011;53177;52.648;1.214;2022-10-31T11:13:51;12.25;;;2.20;;
66380;SDS011;53177;52.648;1.214;2022-10-31T11:21:37;10.02;;;2.97;;
66380;SDS011;53177;52.648;1.214;2022-10-31T11:24:13;9.63;;;2.00;;
66380;SDS011;53177;52.648;1.214;2022-10-31T11:26:41;9.23;;;1.90;;
66380;SDS011;53177;52.648;1.214;2022-10-31T11:29:13;9.93;;;1.90;;
66380;SDS011;53177;52.648;1.214;2022-10-31T11:31:45;10.57;;;2.20;;
66380;SDS011;53177;52.648;1.214;2022-10-31T11:37:14;8.25;;;2.25;;
66380;SDS011;53177;52.648;1.214;2022-10-31T11:39:43;7.93;;;2.03;;
66380;SDS011;53177;52.648;1.214;2022-10-31T11:42:14;8.38;;;1.73;;
66380;SDS011;53177;52.648;1.214;2022-10-31T11:44:41;7.83;;;1.80;;
66380;SDS011;53177;52.648;1.214;2022-10-31T11:47:15;10.18;;;1.73;;
66380;SDS011;53177;52.648;1.214;2022-10-31T11:49:43;7.60;;;2.35;;
66380;SDS011;53177;52.648;1.214;2022-10-31T11:52:20;7.63;;;1.70;;
66380;SDS011;53177;52.648;1.214;2022-10-31T11:54:53;8.75;;;1.80;;
66380;SDS011;53177;52.648;1.214;2022-10-31T11:57:23;9.40;;;2.00;;
66380;SDS011;53177;52.648;1.214;2022-10-31T11:59:53;10.73;;;2.00;;
66380;SDS011;53177;52.648;1.214;2022-10-31T12:02:20;8.27;;;2.10;;
66380;SDS011;53177;52.648;1.214;2022-10-31T12:05:31;11.57;;;2.10;;
66380;SDS011;53177;52.648;1.214;2022-10-31T12:07:42;7.18;;;2.10;;
66380;SDS011;53177;52.648;1.214;2022-10-31T12:10:12;8.57;;;2.05;;
66380;SDS011;53177;52.648;1.214;2022-10-31T12:12:42;9.23;;;2.10;;
66380;SDS011;53177;52.648;1.214;2022-10-31T12:23:32;11.07;;;2.30;;
66380;SDS011;53177;52.648;1.214;2022-10-31T12:34:32;9.05;;;1.77;;
66380;SDS011;53177;52.648;1.214;2022-10-31T12:58:40;6.63;;;1.63;;
66380;SDS011;53177;52.648;1.214;2022-10-31T13:06:32;9.75;;;2.00;;
66380;SDS011;53177;52.648;1.214;2022-10-31T13:09:19;10.00;;;2.00;;
66380;SDS011;53177;52.648;1.214;2022-10-31T13:12:01;9.38;;;1.90;;
66380;SDS011;53177;52.648;1.214;2022-10-31T13:14:34;8.82;;;1.80;;
66380;SDS011;53177;52.648;1.214;2022-10-31T13:17:04;7.18;;;1.90;;
66380;SDS011;53177;52.648;1.214;2022-10-31T13:19:34;5.90;;;1.40;;
66380;SDS011;53177;52.648;1.214;2022-10-31T13:24:36;8.13;;;1.42;;
66380;SDS011;53177;52.648;1.214;2022-10-31T13:27:14;5.78;;;1.48;;
66380;SDS011;53177;52.648;1.214;2022-10-31T13:32:30;9.70;;;1.70;;
66380;SDS011;53177;52.648;1.214;2022-10-31T13:35:23;8.10;;;1.40;;
66380;SDS011;53177;52.648;1.214;2022-10-31T13:38:01;8.38;;;1.40;;
66380;SDS011;53177;52.648;1.214;2022-10-31T13:40:54;7.53;;;1.58;;
66380;SDS011;53177;52.648;1.214;2022-10-31T13:46:26;7.15;;;1.40;;
66380;SDS011;53177;52.648;1.214;2022-10-31T13:49:00;8.30;;;1.70;;
66380;SDS011;53177;52.648;1.214;2022-10-31T13:51:30;9.93;;;1.80;;
66380;SDS011;53177;52.648;1.214;2022-10-31T13:54:06;7.53;;;1.63;;
66380;SDS011;53177;52.648;1.214;2022-10-31T13:56:47;6.57;;;1.60;;
66380;SDS011;53177;52.648;1.214;2022-10-31T13:59:16;7.85;;;1.80;;
66380;SDS011;53177;52.648;1.214;2022-10-31T14:01:51;5.72;;;1.50;;
66380;SDS011;53177;52.648;1.214;2022-10-31T14:04:22;5.55;;;1.50;;
66380;SDS011;53177;52.648;1.214;2022-10-31T14:07:06;6.85;;;1.73;;
66380;SDS011;53177;52.648;1.214;2022-10-31T14:09:35;7.93;;;1.55;;
66380;SDS011;53177;52.648;1.214;2022-10-31T14:12:07;6.53;;;2.00;;
66380;SDS011;53177;52.648;1.214;2022-10-31T14:14:46;7.30;;;1.77;;
66380;SDS011;53177;52.648;1.214;2022-10-31T14:17:18;8.73;;;1.80;;
66380;SDS011;53177;52.648;1.214;2022-10-31T14:20:00;6.93;;;1.77;;
66380;SDS011;53177;52.648;1.214;2022-10-31T14:22:36;8.73;;;2.00;;
66380;SDS011;53177;52.648;1.214;2022-10-31T14:28:01;9.77;;;2.00;;
66380;SDS011;53177;52.648;1.214;2022-10-31T14:30:50;7.47;;;1.83;;
66380;SDS011;53177;52.648;1.214;2022-10-31T14:33:18;5.70;;;1.75;;
66380;SDS011;53177;52.648;1.214;2022-10-31T14:43:47;7.13;;;1.70;;
66380;SDS011;53177;52.648;1.214;2022-10-31T14:46:39;7.85;;;1.85;;
66380;SDS011;53177;52.648;1.214;2022-10-31T14:52:25;7.50;;;1.52;;
66380;SDS011;53177;52.648;1.214;2022-10-31T14:54:53;5.25;;;1.77;;
66380;SDS011;53177;52.648;1.214;2022-10-31T14:57:23;7.97;;;1.33;;
66380;SDS011;53177;52.648;1.214;2022-10-31T14:59:55;8.82;;;1.40;;
66380;SDS011;53177;52.648;1.214;2022-10-31T15:02:32;5.82;;;1.40;;
66380;SDS011;53177;52.648;1.214;2022-10-31T15:05:03;7.00;;;1.30;;
66380;SDS011;53177;52.648;1.214;2022-10-31T15:07:33;6.18;;;1.38;;
66380;SDS011;53177;52.648;1.214;2022-10-31T15:10:06;6.97;;;1.30;;
66380;SDS011;53177;52.648;1.214;2022-10-31T15:12:47;8.70;;;1.67;;
66380;SDS011;53177;52.648;1.214;2022-10-31T15:17:48;6.55;;;1.55;;
66380;SDS011;53177;52.648;1.214;2022-10-31T15:20:18;9.73;;;1.80;;
66380;SDS011;53177;52.648;1.214;2022-10-31T15:22:46;6.20;;;1.20;;
66380;SDS011;53177;52.648;1.214;2022-10-31T15:25:17;9.98;;;1.60;;
66380;SDS011;53177;52.648;1.214;2022-10-31T15:27:45;9.45;;;1.55;;
66380;SDS011;53177;52.648;1.214;2022-10-31T15:30:30;8.65;;;1.48;;
66380;SDS011;53177;52.648;1.214;2022-10-31T15:32:55;7.32;;;1.48;;
66380;SDS011;53177;52.648;1.214;2022-10-31T15:35:24;6.60;;;1.40;;
66380;SDS011;53177;52.648;1.214;2022-10-31T15:37:52;7.80;;;1.50;;
66380;SDS011;53177;52.648;1.214;2022-10-31T15:40:19;7.13;;;1.52;;
66380;SDS011;53177;52.648;1.214;2022-10-31T15:42:51;5.90;;;1.33;;
66380;SDS011;53177;52.648;1.214;2022-10-31T15:45:23;5.93;;;2.10;;
66380;SDS011;53177;52.648;1.214;2022-10-31T15:47:57;8.18;;;1.88;;
66380;SDS011;53177;52.648;1.214;2022-10-31T15:52:57;6.45;;;1.90;;
66380;SDS011;53177;52.648;1.214;2022-10-31T15:55:25;7.63;;;1.67;;
66380;SDS011;53177;52.648;1.214;2022-10-31T15:57:58;8.05;;;1.80;;
66380;SDS011;53177;52.648;1.214;2022-10-31T16:00:29;8.57;;;1.90;;
66380;SDS011;53177;52.648;1.214;2022-10-31T16:03:08;15.23;;;2.17;;
66380;SDS011;53177;52.648;1.214;2022-10-31T16:05:45;9.93;;;2.22;;
66380;SDS011;53177;52.648;1.214;2022-10-31T16:08:21;8.45;;;2.17;;
66380;SDS011;53177;52.648;1.214;2022-10-31T16:13:31;9.43;;;2.10;;
66380;SDS011;53177;52.648;1.214;2022-10-31T16:16:00;9.15;;;2.40;;
66380;SDS011;53177;52.648;1.214;2022-10-31T16:18:27;7.55;;;2.10;;
66380;SDS011;53177;52.648;1.214;2022-10-31T16:20:59;9.50;;;2.20;;
66380;SDS011;53177;52.648;1.214;2022-10-31T16:23:25;11.53;;;3.23;;
66380;SDS011;53177;52.648;1.214;2022-10-31T16:25:52;9.20;;;2.88;;
66380;SDS011;53177;52.648;1.214;2022-10-31T16:28:22;7.93;;;2.70;;
66380;SDS011;53177;52.648;1.214;2022-10-31T16:30:55;12.43;;;2.50;;
66380;SDS011;53177;52.648;1.214;2022-10-31T16:33:27;9.75;;;2.85;;
66380;SDS011;53177;52.648;1.214;2022-10-31T16:35:54;9.05;;;2.33;;
66380;SDS011;53177;52.648;1.214;2022-10-31T16:38:21;9.48;;;2.38;;
66380;SDS011;53177;52.648;1.214;2022-10-31T16:40:47;9.75;;;2.47;;
66380;SDS011;53177;52.648;1.214;2022-10-31T16:43:14;8.95;;;2.53;;
66380;SDS011;53177;52.648;1.214;2022-10-31T16:45:47;9.82;;;2.60;;
66380;SDS011;53177;52.648;1.214;2022-10-31T16:48:15;7.53;;;2.40;;
66380;SDS011;53177;52.648;1.214;2022-10-31T16:50:46;11.13;;;2.60;;
66380;SDS011;53177;52.648;1.214;2022-10-31T16:53:13;10.20;;;2.78;;
66380;SDS011;53177;52.648;1.214;2022-10-31T16:55:46;7.40;;;2.38;;
66380;SDS011;53177;52.648;1.214;2022-10-31T16:58:26;11.57;;;2.63;;
66380;SDS011;53177;52.648;1.214;2022-10-31T17:00:58;12.65;;;3.38;;
66380;SDS011;53177;52.648;1.214;2022-10-31T17:03:24;7.10;;;2.83;;
66380;SDS011;53177;52.648;1.214;2022-10-31T17:05:51;10.32;;;2.67;;
66380;SDS011;53177;52.648;1.214;2022-10-31T17:08:17;10.90;;;3.03;;
66380;SDS011;53177;52.648;1.214;2022-10-31T17:10:42;7.35;;;2.50;;
66380;SDS011;53177;52.648;1.214;2022-10-31T17:13:20;9.25;;;2.70;;
66380;SDS011;53177;52.648;1.214;2022-10-31T17:15:49;10.38;;;2.97;;
66380;SDS011;53177;52.648;1.214;2022-10-31T17:18:16;8.85;;;2.50;;
66380;SDS011;53177;52.648;1.214;2022-10-31T17:20:42;11.20;;;2.83;;